EmailTwitter


Observations de surface / France / LFBO (07630)

Régions: Québec | Canada | États-Unis | Europe | France | UK | Elsewhere
Station
Affichage
Infos & localisation pour LFBO (07630) | Aide pour décoder les METARs

Observations prises le 2017-03-28 à 07H30 UTC à TOULOUSE/BLAGNAC, FR (LFBO)

Etat du ciel: partiellement nuageux.

Température: 9.0 Celsius

Point de rosée: 9.0 Celsius

Humidité relative: 100%

Vents: Sud-sud-ouest à 11 km/h ou 6 noeuds.

Pression au niveau moyen de la mer: 102.50 kilopascals.

Visibilité horizontale: 5.59 milles terrestres ou 8.95 kilomètres.

Hauteur du plafond: 91 mètres ( 300 pieds ).

Observation METAR:

LFBO 280730Z AUTO 20006KT 9000 BKN003 BKN014 09/09 Q1025 BECMG NSC=